עמוד ראשי
METAR-TAF:

METAR-TAF

שדות תעופה :

ריו ברנקו, אקרי, ברזיל

קו רוחב: 10-00S, קו אורך: 067-48W, גובה: 142מטר

תצפית מזג אוויר נוכחית

הדו"ח נערך לפני 30דקות, בשעה 11:00 UTC
רוח 3קשר מכיוון צפון
טמפרטורת 24 צלסיוס
לחות 100%
לחץ 1011 hPa
ראות 10 קילומטר או יותר
מעט עננים בגובה 2000רגל
עננים פזורים בגובה 10000רגל

METAR: SBRB 121100Z 01003KT 9999 FEW020 SCT100 24/24 Q1011

זמן: 06:30 (11:30 UTC)

תחזית

הדו"ח נערך לפני 7 שעות ו 1דקות, בשעה 04:29 UTC
תחזית בתוקף מ 12 ב 06 UTC עד 12 ב 18 UTC
רוח 3קשר מכיוון צפון-מזרח
ראות 10 קילומטר או יותר
מעט עננים בגובה 2000רגל
יעשה מ
12 ב 15 UTC עד 12 ב 17 UTC
רוח 7קשר מכיוון צפון
עננים פזורים בגובה 2500רגל
מעט עננים בגובה 3000רגל , קומולוס מיגדלי.

TAF: SBRB 120429Z 1206/1218 04003KT 9999 FEW020 TN25/1209Z TX31/1218Z BECMG 1215/1217 36007KT SCT025 FEW030TCU RMK PFV

תצפיות ותחזיות מזג אוויר לגבי יותר מ- 4,000 שדות תעופה ברחבי העולם. דוחות METAR ו- TAF.

התחנות הזמינות מסומנות בנקודות צהובות ואדומות על גבי המפה.

העבר את העכבר לנקודה הצבעונית על מנת לראות את שם התחנה.

לאחר מכן, לחץ כדי לראות את תוכן ואת תחזיות מזג האוויר.

כדי לשנות את המפה: לחץ על הכפתורים הירוקים עם הפלוס השחור כדי להתקרב; על הכפתור הירוק עם המקף כדי להתרחק; או בחיצים הירוקים למפות סמוכות.


METAR-TAF: